26 juin 2022

Temps Code Temps Temp. Vue Base cloud Vent METAR/SPECI
11:04 pm
V
73 °F 9 mi 12.000 ft 250° 250° 9 - 15 kt METAR CYHU 270304Z AUTO 25009G15KT 9SM -RA FEW071 SCT092 OVC120 23/19 A2983 RMK PRESRR SLP104 DENSITY ALT 1200FT
11:00 pm
V
73 °F 9 mi 12.000 ft 250° 250° 10 - 15 kt METAR CYHU 270300Z AUTO 25010G15KT 9SM FEW071 SCT091 OVC120 23/19 A2983 RMK SLP102 DENSITY ALT 1200FT
10:47 pm
V
73 °F 9 mi 10.000 ft 260° 260° 10 - 19 kt METAR CYHU 270247Z AUTO 26010G19KT 9SM -RA FEW071 BKN100 OVC120 23/18 A2982 RMK PRESFR SLP099 DENSITY ALT 1200FT
10:32 pm
V
75 °F 9 mi 10.000 ft 260° 260° 19 - 24 kt METAR CYHU 270232Z AUTO 26019G24KT 9SM FEW071 OVC100 24/17 A2983 RMK SLP105 DENSITY ALT 1300FT
10:00 pm
V
75 °F 9 mi 9.100 ft 230° 230° 8 kt METAR CYHU 270200Z AUTO 23008KT 9SM BKN091 OVC110 24/17 A2983 RMK SLP102 DENSITY ALT 1300FT
9:47 pm
V
75 °F 9 mi 10.000 ft 240° 240° 7 kt METAR CYHU 270147Z AUTO 24007KT 9SM BKN100 OVC120 24/18 A2983 RMK SLP102 DENSITY ALT 1300FT
9:36 pm
V
75 °F 9 mi 11.000 ft 230° 230° 6 kt METAR CYHU 270136Z AUTO 23006KT 9SM -RA FEW081 BKN110 OVC150 24/18 A2982 RMK SLP101 DENSITY ALT 1300FT
9:29 pm
V
75 °F 9 mi 10.000 ft 270° 270° 6 kt METAR CYHU 270129Z AUTO 27006KT 9SM FEW081 BKN100 BKN140 OVC170 24/18 A2982 RMK SLP100 DENSITY ALT 1300FT
9:00 pm
V
77 °F 9 mi 8.800 ft 230° 230° 12 kt METAR CYHU 270100Z AUTO 23012KT 9SM -RA SCT055 SCT067 BKN088 BKN140 25/17 A2983 RMK SLP105 DENSITY ALT 1500FT
8:16 pm
V
82 °F 9 mi 16.000 ft 270° 270° 10 - 17 kt METAR CYHU 270016Z AUTO 27010G17KT 9SM -RA FEW045 SCT076 OVC160 28/16 A2982 RMK SLP101 DENSITY ALT 1700FT
8:00 pm
V
84 °F 9 mi 16.000 ft 260° 260° 9 - 17 kt METAR CYHU 270000Z AUTO 26009G17KT 9SM BKN160 29/16 A2982 RMK SLP100 DENSITY ALT 1900FT
7:00 pm
V
86 °F 9 mi 15.000 ft 210° 210° 11 - 18 kt METAR CYHU 262300Z AUTO 21011G18KT 9SM SCT086 BKN150 30/18 A2982 RMK SLP100 DENSITY ALT 1900FT
6:00 pm
V
86 °F 9 mi - 180° 180° 8 kt METAR CYHU 262200Z AUTO 18008KT 9SM SCT190 30/19 A2983 RMK SLP102 DENSITY ALT 1900FT
5:00 pm
V
88 °F 9 mi - 180° 180° 12 - 20 kt METAR CYHU 262100Z AUTO 18012G20KT 9SM FEW096 31/19 A2984 RMK SLP108 DENSITY ALT 2000FT
4:00 pm
V
88 °F 9 mi - 170° 170° 15 - 21 kt METAR CYHU 262000Z AUTO 17015G21KT 140V200 9SM CLR 31/19 A2986 RMK SLP113 DENSITY ALT 2100FT
3:00 pm
V
88 °F 9 mi - 160° 160° 13 kt METAR CYHU 261900Z AUTO 16013KT 9SM CLR 31/20 A2988 RMK SLP121 DENSITY ALT 2000FT
2:00 pm
V
88 °F 9 mi - 180° 180° 13 - 18 kt METAR CYHU 261800Z AUTO 18013G18KT 9SM CLR 31/20 A2991 RMK SLP129 DENSITY ALT 2000FT
1:00 pm
V
86 °F 9 mi - 170° 170° 10 kt METAR CYHU 261700Z AUTO 17010KT 9SM CLR 30/20 A2994 RMK SLP141 DENSITY ALT 1900FT
12:00 pm
V
84 °F 9 mi - 190° 190° 11 - 16 kt METAR CYHU 261600Z AUTO 19011G16KT 9SM CLR 29/20 A2996 RMK SLP147 DENSITY ALT 1700FT
11:00 am
V
82 °F 9 mi - 170° 170° 11 kt METAR CYHU 261500Z AUTO 17011KT 9SM CLR 28/20 A2998 RMK SLP154 DENSITY ALT 1600FT
10:00 am
V
81 °F 9 mi - 150° 150° 9 kt METAR CYHU 261400Z AUTO 15009KT 9SM CLR 27/21 A3000 RMK SLP160 DENSITY ALT 1400FT
9:00 am
V
77 °F 9 mi - 170° 170° 12 kt METAR CYHU 261300Z AUTO 17012KT 9SM CLR 25/20 A3002 RMK SLP168 DENSITY ALT 1200FT
8:00 am
V
73 °F 9 mi - 180° 180° 7 kt METAR CYHU 261200Z AUTO 18007KT 9SM CLR 23/20 A3003 RMK SLP171 DENSITY ALT 1000FT
7:00 am
V
70 °F 9 mi - 160° 160° 4 kt METAR CYHU 261100Z AUTO 16004KT 9SM CLR 21/19 A3004 RMK SLP173 DENSITY ALT 700FT
6:00 am
V
66 °F 9 mi - Var Var 2 kt METAR CYHU 261000Z AUTO VRB02KT 9SM CLR 19/18 A3005 RMK SLP176 DENSITY ALT 500FT
5:00 am
V
64 °F 9 mi - 120° 120° 2 kt METAR CYHU 260900Z AUTO 12002KT 9SM CLR 18/17 A3004 RMK SLP173 DENSITY ALT 400FT
4:44 am
V
66 °F 9 mi - 120° 120° 4 kt METAR CYHU 260844Z AUTO 12004KT 9SM CLR 19/18 A3004 RMK SLP173 DENSITY ALT 400FT
4:33 am
V
66 °F 5 mi - 140° 140° 4 kt METAR CYHU 260833Z AUTO 14004KT 5SM -RA BR CLR 19/18 A3003 RMK SLP172 DENSITY ALT 500FT
4:30 am
V
66 °F 5 mi - 130° 130° 4 kt METAR CYHU 260830Z AUTO 13004KT 5SM BR CLR 19/18 A3003 RMK SLP172 DENSITY ALT 500FT
4:00 am
V
66 °F 9 mi - 140° 140° 3 kt METAR CYHU 260800Z AUTO 14003KT 9SM CLR 19/18 A3004 RMK SLP175 DENSITY ALT 500FT
3:00 am
V
68 °F 9 mi - 140° 140° 2 kt METAR CYHU 260700Z AUTO 14002KT 9SM CLR 20/18 A3005 RMK SLP176 DENSITY ALT 600FT
2:00 am
V
68 °F 9 mi - 120° 120° 4 kt METAR CYHU 260600Z AUTO 12004KT 9SM CLR 20/18 A3005 RMK SLP177 DENSITY ALT 600FT
1:00 am
V
70 °F 9 mi - 130° 130° 2 kt METAR CYHU 260500Z AUTO 13002KT 9SM CLR 21/18 A3005 RMK SLP176 DENSITY ALT 700FT
12:00 am
V
72 °F 9 mi - 140° 140° 2 kt METAR CYHU 260400Z AUTO 14002KT 9SM CLR 22/18 A3005 RMK SLP179 DENSITY ALT 900FT

25 juin 2022

Temps Code Temps Temp. Vue Base cloud Vent METAR/SPECI
11:00 pm
V
73 °F 9 mi - 160° 160° 2 kt METAR CYHU 260300Z AUTO 16002KT 9SM CLR 23/18 A3006 RMK SLP182 DENSITY ALT 1000FT
10:00 pm
V
77 °F 9 mi - 200° 200° 2 kt METAR CYHU 260200Z AUTO 20002KT 9SM CLR 25/18 A3006 RMK SLP182 DENSITY ALT 1100FT
9:00 pm
V
79 °F 9 mi - 180° 180° 4 kt METAR CYHU 260100Z AUTO 18004KT 9SM CLR 26/17 A3005 RMK SLP178 DENSITY ALT 1300FT
8:00 pm
V
81 °F 9 mi - 170° 170° 7 kt METAR CYHU 260000Z AUTO 17007KT 9SM CLR 27/18 A3005 RMK SLP177 DENSITY ALT 1400FT
7:00 pm
V
84 °F 9 mi - 160° 160° 7 kt METAR CYHU 252300Z AUTO 16007KT 9SM CLR 29/17 A3005 RMK SLP177 DENSITY ALT 1600FT
6:00 pm
V
84 °F 9 mi - 190° 190° 6 kt METAR CYHU 252200Z AUTO 19006KT 9SM CLR 29/17 A3005 RMK SLP178 DENSITY ALT 1600FT
5:00 pm
V
84 °F 9 mi - 180° 180° 8 kt METAR CYHU 252100Z AUTO 18008KT 9SM CLR 29/17 A3006 RMK SLP181 DENSITY ALT 1600FT
4:00 pm
V
84 °F 9 mi - 280° 280° 5 kt METAR CYHU 252000Z AUTO 28005KT 230V300 9SM CLR 29/17 A3007 RMK SLP183 DENSITY ALT 1600FT
3:00 pm
V
84 °F 9 mi 4.900 ft 320° 320° 6 kt METAR CYHU 251900Z AUTO 32006KT 170V340 9SM BKN049 29/18 A3006 RMK SLP182 DENSITY ALT 1600FT
2:00 pm
V
81 °F 9 mi - Var Var 2 kt METAR CYHU 251800Z AUTO VRB02KT 9SM CLR 27/18 A3007 RMK SLP185 DENSITY ALT 1400FT
1:00 pm
V
81 °F 9 mi - Var Var 2 kt METAR CYHU 251700Z AUTO VRB02KT 9SM CLR 27/18 A3008 RMK SLP187 DENSITY ALT 1400FT
12:00 pm
V
79 °F 9 mi - 030° 030° 5 kt METAR CYHU 251600Z AUTO 03005KT 350V100 9SM CLR 26/18 A3008 RMK SLP189 DENSITY ALT 1200FT
11:00 am
V
77 °F 9 mi - Var Var 2 kt METAR CYHU 251500Z AUTO VRB02KT 9SM CLR 25/19 A3010 RMK SLP194 DENSITY ALT 1100FT
10:00 am
V
75 °F 9 mi - 220° 220° 4 kt METAR CYHU 251400Z AUTO 22004KT 150V240 9SM SCT071 24/18 A3010 RMK SLP193 DENSITY ALT 1000FT
9:00 am
V
72 °F 9 mi - 240° 240° 5 kt METAR CYHU 251300Z AUTO 24005KT 9SM SCT076 22/17 A3010 RMK SLP194 DENSITY ALT 700FT
8:00 am
V
68 °F 9 mi 7.100 ft 240° 240° 6 kt METAR CYHU 251200Z AUTO 24006KT 9SM OVC071 20/17 A3008 RMK SLP187 DENSITY ALT 600FT
7:00 am
V
66 °F 9 mi 7.600 ft 210° 210° 6 kt METAR CYHU 251100Z AUTO 21006KT 9SM BKN076 19/16 A3006 RMK SLP180 DENSITY ALT 500FT
6:00 am
V
66 °F 9 mi - 200° 200° 5 kt METAR CYHU 251000Z AUTO 20005KT 9SM CLR 19/16 A3004 RMK SLP175 DENSITY ALT 400FT
5:00 am
V
64 °F 9 mi - 210° 210° 6 kt METAR CYHU 250900Z AUTO 21006KT 9SM CLR 18/16 A3003 RMK SLP171 DENSITY ALT 400FT
4:00 am
V
64 °F 9 mi - 200° 200° 4 kt METAR CYHU 250800Z AUTO 20004KT 9SM CLR 18/15 A3002 RMK SLP166 DENSITY ALT 400FT
3:00 am
V
66 °F 9 mi - 220° 220° 6 kt METAR CYHU 250700Z AUTO 22006KT 9SM CLR 19/15 A3002 RMK SLP166 DENSITY ALT 500FT
2:00 am
V
66 °F 9 mi - 220° 220° 5 kt METAR CYHU 250600Z AUTO 22005KT 9SM CLR 19/16 A3000 RMK SLP162 DENSITY ALT 500FT
1:00 am
V
68 °F 9 mi - 210° 210° 6 kt METAR CYHU 250500Z AUTO 21006KT 9SM CLR 20/15 A3000 RMK SLP160 DENSITY ALT 600FT
12:00 am
V
68 °F 9 mi - 220° 220° 5 kt METAR CYHU 250400Z AUTO 22005KT 9SM CLR 20/16 A3000 RMK SLP160 DENSITY ALT 700FT

24 juin 2022

Temps Code Temps Temp. Vue Base cloud Vent METAR/SPECI
11:00 pm
V
70 °F 9 mi - 210° 210° 6 kt METAR CYHU 250300Z AUTO 21006KT 9SM CLR 21/16 A2999 RMK SLP157 DENSITY ALT 800FT
10:00 pm
V
73 °F 9 mi - 220° 220° 6 kt METAR CYHU 250200Z AUTO 22006KT 9SM FEW110 23/16 A2999 RMK SLP156 DENSITY ALT 1000FT
9:00 pm
V
73 °F 9 mi - 230° 230° 6 kt METAR CYHU 250100Z AUTO 23006KT 9SM CLR 23/16 A2998 RMK SLP154 DENSITY ALT 1000FT
8:00 pm
V
77 °F 9 mi - 230° 230° 10 kt METAR CYHU 250000Z AUTO 23010KT 9SM CLR 25/16 A2996 RMK SLP149 DENSITY ALT 1300FT
7:00 pm
V
79 °F 9 mi - 230° 230° 11 kt METAR CYHU 242300Z AUTO 23011KT 9SM CLR 26/17 A2996 RMK SLP148 DENSITY ALT 1400FT
6:00 pm
V
79 °F 9 mi - 210° 210° 9 kt METAR CYHU 242200Z AUTO 21009KT 9SM CLR 26/16 A2996 RMK SLP148 DENSITY ALT 1400FT
5:00 pm
V
79 °F 9 mi - 230° 230° 9 kt METAR CYHU 242100Z AUTO 23009KT 200V270 9SM CLR 26/17 A2996 RMK SLP149 DENSITY ALT 1400FT
4:00 pm
V
79 °F 9 mi - 220° 220° 10 kt METAR CYHU 242000Z AUTO 22010KT 9SM CLR 26/17 A2996 RMK SLP147 DENSITY ALT 1400FT
Données plus anciennes

Télécharge notre application

Un accès facile à toute la météo aéronautique sur ton téléphone portable et ta tablette.
Avec de nombreuses fonctionnalités non disponibles sur le site Web, comme la prise en charge hors ligne et une liste personnelle d'aéroports.

Nous et des tiers suivons ton comportement sur Internet sur notre site Web à l'aide de cookies. Si tu continues, nous supposons que tu acceptes notre politique en matière de cookies. Apprendre plus